Nearby Airport METAR Reports

 

KVSF - Springfield, Vermont, USA
Distance from station: WSW 8mi, 12km
Updated: 3:54am
Overcast
Overcast
 Wind from WSW
Wind: WSW 5 mph , 7 km/h
Temperature: 36°F , 2°C
Wind Chill: 32°F , 0°C
Dew Point: 27°F , -3°C
Humidity: 70%
Barometer: 30.29 inHg , 1025.7 hPa
Clouds: Overcast
Visibility: 10 miles , 16 km
Cloud details: Overcast 7000 ft
2018/04/21 07:54 KVSF 210754Z AUTO 24004KT 10SM OVC070 02/M03 A3029 RMK AO2 SLP262 T00221033
KLEB - Lebanon, New Hampshire, USA
Distance from station: N 18mi, 29km
Updated: 3:53am
Overcast
Overcast
 Wind from calm
Wind: Calm
Temperature: 36°F , 2°C
Dew Point: 27°F , -3°C
Humidity: 70%
Barometer: 30.26 inHg , 1024.7 hPa
Clouds: Overcast
Visibility: 10 miles , 16 km
Cloud details: Overcast 6500 ft
2018/04/21 07:53 KLEB 210753Z AUTO 00000KT 10SM OVC065 02/M03 A3026 RMK AO2 SLP253 T00221033
KRUT - Rutland State, Vermont, USA
Distance from station: WNW 31mi, 50km
Updated: 3:56am
Overcast
Overcast
 Wind from SE
Wind: SE 3 mph , 6 km/h
Temperature: 34°F , 1°C
Dew Point: 28°F , -2°C
Humidity: 81%
Barometer: 30.29 inHg , 1025.7 hPa
Clouds: Overcast
Visibility: 10 miles , 16 km
Cloud details: Mostly cloudy 4800 ft
Overcast 6500 ft
2018/04/21 07:56 KRUT 210756Z AUTO 14003KT 10SM BKN048 OVC065 01/M02 A3029 RMK AO2 SLP280 T00111022 FZRANO $
 
KEEN - Keene/Dillant, New Hampshire, USA
Distance from station: S 34mi, 55km
Updated: 3:56am
Clear
Clear
 Wind from S
Wind: S 3 mph , 6 km/h
Temperature: 27°F , -3°C
Dew Point: 25°F , -4°C
Humidity: 93%
Barometer: 30.29 inHg , 1025.7 hPa
Clouds: Clear
Visibility: 10 miles , 16 km
2018/04/21 07:56 KEEN 210756Z AUTO 18003KT 10SM CLR M03/M04 A3029 RMK AO2 SLP279 T10281044 FZRANO
K1P1 - Plymouth, New Hampshire, USA
Distance from station: NE 42mi, 67km
Updated: 3:55am
Clear
Clear
 Wind from W
Wind: W 3 mph , 6 km/h
Temperature: 30°F , -1°C
Dew Point: 28°F , -2°C
Humidity: 93%
Barometer: 30.25 inHg , 1024.4 hPa
Clouds: Clear
Visibility: 10 miles , 16 km
2018/04/21 07:55 K1P1 210755Z AUTO 28003KT 10SM CLR M01/M02 A3025 RMK AO2 T10071024
KAFN - Jaffrey, New Hampshire, USA
Distance from station: SSE 44mi, 70km
Updated: 3:52am
Clear
Clear
 Wind from SSW
Wind: SSW 3 mph , 6 km/h
Temperature: 34°F , 1°C
Dew Point: 27°F , -3°C
Humidity: 75%
Barometer: 30.25 inHg , 1024.4 hPa
Clouds: Clear
Visibility: 10 miles , 16 km
2018/04/21 07:52 KAFN 210752Z AUTO 21003KT 10SM CLR 01/M03 A3025 RMK AO2 SLP259 T00061028
 
KCON - Concord, New Hampshire, USA
Distance from station: ESE 45mi, 73km
Updated: 3:51am
Clear
Clear
 Wind from WNW
Wind: WNW 5 mph , 7 km/h
Temperature: 34°F , 1°C
Wind Chill: 29°F , -2°C
Dew Point: 27°F , -3°C
Humidity: 75%
Barometer: 30.25 inHg , 1024.4 hPa
Clouds: Clear
Visibility: 10 miles , 16 km
2018/04/21 07:51 KCON 210751Z AUTO 30004KT 10SM CLR 01/M03 A3025 RMK AO2 SLP248 T00111033
KLCI - Laconia Muni, New Hampshire, USA
Distance from station: ENE 49mi, 80km
Updated: 3:56am
Clear
Clear
 Wind from calm
Wind: Calm
Temperature: 30°F , -1°C
Dew Point: 28°F , -2°C
Humidity: 93%
Barometer: 30.24 inHg , 1024 hPa
Clouds: Clear
Visibility: 10 miles , 16 km
2018/04/21 07:56 KLCI 210756Z AUTO 00000KT 10SM CLR M01/M02 A3024 RMK AO2 SLP261 T10111022 FZRANO
KDDH - Bennington, Vermont, USA
Distance from station: SW 55mi, 89km
Updated: 3:54am
Clear
Clear
 Wind from calm
Wind: Calm
Temperature: 30°F , -1°C
Dew Point: 25°F , -4°C
Humidity: 80%
Barometer: 30.30 inHg , 1026.1 hPa
Clouds: Clear
Visibility: 10 miles , 16 km
2018/04/21 07:54 KDDH 210754Z AUTO 00000KT 10SM CLR M01/M04 A3030 RMK AO2 SLP268 T10111044
 
K6B0 - Middlebury, Vermont, USA
Distance from station: NW 56mi, 90km
Updated: 3:35am
Overcast
Overcast
 Wind from calm
Wind: Calm
Temperature: 34°F , 1°C
Dew Point: 30°F , -1°C
Humidity: 87%
Barometer: 30.30 inHg , 1026.1 hPa
Clouds: Overcast
Visibility: 10 miles , 16 km
Cloud details: Mostly cloudy 5000 ft
Overcast 7000 ft
2018/04/21 07:35 K6B0 210735Z AUTO 00000KT 10SM BKN050 OVC070 01/M01 A3030 RMK AO2 T00091015
KMHT - Manchester, New Hampshire, USA
Distance from station: ESE 56mi, 90km
Updated: 3:53am
Clear
Clear
 Wind from W
Wind: W 3 mph , 6 km/h
Temperature: 39°F , 4°C
Dew Point: 27°F , -3°C
Humidity: 61%
Barometer: 30.25 inHg , 1024.4 hPa
Clouds: Clear
Visibility: 10 miles , 16 km
2018/04/21 07:53 KMHT 210753Z 27003KT 10SM CLR 04/M03 A3025 RMK AO2 SLP258 T00441033
KORE - Orange, Massachusetts, USA
Distance from station: S 56mi, 90km
Updated: 3:52am
Clear
Clear
 Wind from calm
Wind: Calm
Temperature: 27°F , -3°C
Dew Point: 25°F , -4°C
Humidity: 93%
Barometer: 30.30 inHg , 1026.1 hPa
Clouds: Clear
Visibility: 10 miles , 16 km
2018/04/21 07:52 KORE 210752Z AUTO 00000KT 10SM CLR M03/M04 A3030 RMK AO2 SLP267 T10281039
 
KMPV - Montpelier/Barre, Vermont, USA
Distance from station: N 58mi, 93km
Updated: 3:51am
Overcast
Overcast
 Wind from WNW
Wind: WNW 7 mph , 11 km/h
Temperature: 36°F , 2°C
Wind Chill: 30°F , -1°C
Dew Point: 25°F , -4°C
Humidity: 65%
Barometer: 30.28 inHg , 1025.4 hPa
Clouds: Overcast
Visibility: 10 miles , 16 km
Cloud details: Overcast 6000 ft
2018/04/21 07:51 KMPV 210751Z AUTO 29006KT 10SM OVC060 02/M04 A3028 RMK AO2 SLP269 T00171044
KASH - Nashua/Boire Fld, New Hampshire, USA
Distance from station: SE 59mi, 95km
Updated: 3:56am
Clear
Clear
 Wind from calm
Wind: Calm
Temperature: 36°F , 2°C
Dew Point: 27°F , -3°C
Humidity: 70%
Barometer: 30.27 inHg , 1025.1 hPa
Clouds: Clear
Visibility: 10 miles , 16 km
2018/04/21 07:56 KASH 210756Z AUTO 00000KT 10SM CLR 02/M03 A3027 RMK AO2 SLP261 T00221028
KAQW - North Adams, Massachusetts, USA
Distance from station: SW 62mi, 99km
Updated: 3:52am
Clear
Clear
 Wind from calm
Wind: Calm
Temperature: 27°F , -3°C
Dew Point: 25°F , -4°C
Humidity: 93%
Barometer: 30.32 inHg , 1026.8 hPa
Clouds: Clear
Visibility: 10 miles , 16 km
2018/04/21 07:52 KAQW 210752Z AUTO 00000KT 10SM CLR M03/M04 A3032 RMK AO2 SLP273 T10281044
 
KGFL - Glens Falls, New York, USA
Distance from station: W 63mi, 101km
Updated: 3:53am
Clear
Clear
 Wind from E
Wind: E 7 mph , 11 km/h
Temperature: 32°F , 0°C
Wind Chill: 25°F , -4°C
Dew Point: 25°F , -4°C
Humidity: 75%
Barometer: 30.32 inHg , 1026.8 hPa
Clouds: Clear
Visibility: 10 miles , 16 km
2018/04/21 07:53 KGFL 210753Z AUTO 09006KT 10SM CLR 00/M04 A3032 RMK AO2 SLP274 T00001039
KFIT - Fitchburg, Massachusetts, USA
Distance from station: SSE 65mi, 105km
Updated: 3:52am
Clear
Clear
 Wind from NW
Wind: NW 6 mph , 9 km/h
Temperature: 39°F , 4°C
Wind Chill: 35°F , 2°C
Dew Point: 27°F , -3°C
Humidity: 61%
Barometer: 30.28 inHg , 1025.4 hPa
Clouds: Clear
Visibility: 10 miles , 16 km
2018/04/21 07:52 KFIT 210752Z AUTO 32005KT 10SM CLR 04/M03 A3028 RMK AO2 SLP258 T00391028
KDAW - Rochester, New Hampshire, USA
Distance from station: E 73mi, 118km
Updated: 3:51am
Clear
Clear
 Wind from W
Wind: W 7 mph , 11 km/h
Temperature: 36°F , 2°C
Wind Chill: 30°F , -1°C
Dew Point: 28°F , -2°C
Humidity: 75%
Barometer: 30.22 inHg , 1023.4 hPa
Clouds: Clear
Visibility: 10 miles , 16 km
2018/04/21 07:51 KDAW 210751Z AUTO 28006KT 10SM CLR 02/M02 A3022 RMK AO2 SLP234 T00221022
 
K1V4 - St. Johnsbury, Vermont, USA
Distance from station: NNE 74mi, 119km
Updated: 2:54am

 
Temperature: 30°F , -1°C
Dew Point: 28°F , -2°C
Humidity: 93%
Barometer: 30.22 inHg , 1023.4 hPa
2018/04/21 06:54 K1V4 210654Z AUTO M01/M02 A3022 RMK AO1 SLP245 T10111022
KLWM - Lawrence, Massachusetts, USA
Distance from station: SE 77mi, 124km
Updated: 3:54am
Clear
Clear
 Wind from W
Wind: W 8 mph , 13 km/h
Temperature: 39°F , 4°C
Wind Chill: 33°F , 1°C
Dew Point: 27°F , -3°C
Humidity: 61%
Barometer: 30.27 inHg , 1025.1 hPa
Clouds: Clear
Visibility: 10 miles , 16 km
2018/04/21 07:54 KLWM 210754Z AUTO 26007KT 10SM CLR 04/M03 A3027 RMK AO2 SLP252 T00391028

free counter page views since 4/29/2009